Time;durP1;ratioP1;P1;durP2;ratioP2;P2;SDS_P1;SDS_P2;PMS_P1;PMS_P2;Temp;Humidity;BMP_temperature;BMP_pressure;BME280_temperature;BME280_humidity;BME280_pressure;Samples;Min_cycle;Max_cycle;Signal;HPM_P1;HPM_P2
2021/12/13 00:01:10;;;;;;;1.30;0.90;;;20.00;26.90;20.40;94806.00;;;;10291393;28;46173;-61
2021/12/13 00:06:18;;;;;;;1.00;0.75;;;20.00;27.00;20.40;94796.00;;;;10291138;28;45407;-60
2021/12/13 00:11:26;;;;;;;0.80;0.70;;;19.90;26.90;20.40;94789.00;;;;10292014;28;45529;-60
2021/12/13 00:16:35;;;;;;;1.00;0.70;;;19.90;26.90;20.40;94783.00;;;;10276293;28;46276;-60
2021/12/13 00:21:41;;;;;;;0.98;0.70;;;19.90;27.00;20.40;94801.00;;;;10274668;28;47569;-60
2021/12/13 00:26:45;;;;;;;;;;;19.90;27.00;20.30;94789.00;;;;10276918;28;45585;-60
2021/12/13 00:32:27;;;;;;;0.73;0.55;;;19.90;26.90;20.30;94796.00;;;;10285781;28;45520;-61
2021/12/13 00:37:36;;;;;;;0.80;0.60;;;19.90;27.00;20.30;94799.00;;;;10275307;28;46079;-60
2021/12/13 00:42:51;;;;;;;1.35;0.45;;;19.90;27.00;20.30;94802.00;;;;10275969;28;45466;-61
2021/12/13 00:47:52;;;;;;;0.85;0.50;;;19.90;27.00;20.30;94804.00;;;;10275929;28;45442;-60
2021/12/13 00:52:54;;;;;;;1.10;0.50;;;19.90;27.00;20.30;94817.00;;;;10289848;28;45261;-61
2021/12/13 00:58:18;;;;;;;0.70;0.47;;;19.90;27.00;20.30;94813.00;;;;10289629;28;45216;-59
2021/12/13 01:03:35;;;;;;;0.40;0.40;;;19.90;27.00;20.30;94807.00;;;;10272583;28;48365;-62
2021/12/13 01:09:12;;;;;;;0.38;0.30;;;19.90;27.00;20.30;94811.00;;;;10273741;28;46965;-60
2021/12/13 01:14:53;;;;;;;0.75;0.40;;;19.80;26.90;20.30;94801.00;;;;10273922;28;47813;-63
2021/12/13 01:20:18;;;;;;;0.50;0.40;;;19.80;27.00;20.30;94826.00;;;;10289038;28;47940;-63
2021/12/13 01:30:53;;;;;;;0.32;0.30;;;19.80;26.90;20.30;94806.00;;;;10274299;28;45175;-61
2021/12/13 01:36:00;;;;;;;0.40;0.30;;;19.80;27.00;20.30;94800.00;;;;10272385;28;45581;-62
2021/12/13 01:41:14;;;;;;;0.15;0.13;;;19.80;26.90;20.30;94810.00;;;;10272744;28;45466;-62
2021/12/13 01:46:18;;;;;;;0.20;0.20;;;19.80;27.00;20.20;94801.00;;;;10273720;28;45173;-62
2021/12/13 01:51:26;;;;;;;0.20;0.20;;;19.80;27.00;20.20;94810.00;;;;10272100;28;45277;-61
2021/12/13 02:01:57;;;;;;;0.30;0.20;;;19.80;27.00;20.30;94807.00;;;;10266855;28;46065;-62
2021/12/13 02:07:02;;;;;;;0.13;0.10;;;19.80;27.00;20.20;94798.00;;;;10269717;28;45532;-62
2021/12/13 02:12:16;;;;;;;0.40;0.20;;;19.80;27.00;20.20;94791.00;;;;10270522;28;46163;-60
2021/12/13 02:17:22;;;;;;;0.30;0.20;;;19.80;27.00;20.20;94775.00;;;;10271461;28;48089;-63
2021/12/13 02:22:48;;;;;;;0.30;0.30;;;19.80;27.00;20.20;94788.00;;;;10287257;28;46449;-61
2021/12/13 02:28:05;;;;;;;0.57;0.20;;;19.80;27.00;20.20;94779.00;;;;10272357;28;46219;-60
2021/12/13 02:33:17;;;;;;;0.20;0.10;;;19.80;27.00;20.20;94783.00;;;;10271019;28;47067;-62
2021/12/13 02:38:19;;;;;;;0.30;0.15;;;19.80;27.10;20.20;94791.00;;;;10287511;28;46418;-61
2021/12/13 02:43:28;;;;;;;0.30;0.20;;;19.80;27.10;20.20;94767.00;;;;10270135;28;46931;-61
2021/12/13 02:48:50;;;;;;;0.10;0.10;;;19.80;27.10;20.20;94785.00;;;;10287194;28;46562;-60
2021/12/13 02:53:58;;;;;;;0.10;0.10;;;19.80;27.00;20.20;94778.00;;;;10286739;28;46091;-61
2021/12/13 02:59:00;;;;;;;0.57;0.20;;;19.80;27.10;20.20;94773.00;;;;10271226;28;46049;-60
2021/12/13 03:04:07;;;;;;;0.28;0.17;;;19.80;27.10;20.20;94771.00;;;;10286292;28;45562;-59
2021/12/13 03:09:24;;;;;;;0.30;0.10;;;19.80;27.10;20.20;94773.00;;;;10286752;28;45505;-60
2021/12/13 03:14:35;;;;;;;0.10;0.10;;;19.70;27.00;20.20;94775.00;;;;10271242;28;46468;-61
2021/12/13 03:19:38;;;;;;;0.10;0.10;;;19.70;27.00;20.20;94766.00;;;;10271611;28;45590;-61
2021/12/13 03:25:19;;;;;;;0.52;0.10;;;19.70;27.00;20.20;94771.00;;;;10272385;28;45569;-60
2021/12/13 03:30:39;;;;;;;0.10;0.10;;;19.70;27.10;20.10;94761.00;;;;10277945;28;45253;-60
2021/12/13 03:35:55;;;;;;;0.20;0.17;;;19.70;27.10;20.20;94758.00;;;;10276072;28;45271;-59
2021/12/13 03:41:00;;;;;;;0.27;0.10;;;19.70;27.10;20.10;94761.00;;;;10277203;28;45197;-61
2021/12/13 03:46:05;;;;;;;0.10;0.10;;;19.70;27.00;20.20;94764.00;;;;10277217;28;46709;-61
2021/12/13 03:51:14;;;;;;;0.20;0.10;;;19.70;27.00;20.20;94761.00;;;;10275519;28;45429;-60
2021/12/13 03:56:22;;;;;;;0.45;0.10;;;19.70;27.10;20.10;94762.00;;;;10275970;28;45309;-61
2021/12/13 04:01:41;;;;;;;0.40;0.20;;;19.70;27.00;20.10;94768.00;;;;10277341;28;45257;-61
2021/12/13 04:06:55;;;;;;;0.57;0.20;;;19.70;27.10;20.20;94768.00;;;;10275380;28;45198;-62
2021/12/13 04:12:00;;;;;;;0.20;0.20;;;19.70;27.00;20.10;94770.00;;;;10291543;28;45190;-62
2021/12/13 04:17:34;;;;;;;0.20;0.20;;;19.70;27.00;20.10;94752.00;;;;10258629;28;47094;-60
2021/12/13 04:22:40;;;;;;;0.20;0.20;;;19.70;27.00;20.10;94769.00;;;;10288486;28;46271;-61
2021/12/13 04:27:55;;;;;;;0.28;0.20;;;19.70;27.10;20.10;94765.00;;;;10274574;28;46406;-61
2021/12/13 04:33:11;;;;;;;0.30;0.22;;;19.70;27.00;20.10;94764.00;;;;10291070;28;45533;-60
2021/12/13 04:38:17;;;;;;;0.40;0.30;;;19.70;27.10;20.10;94763.00;;;;10273850;28;45418;-62
2021/12/13 04:43:19;;;;;;;0.20;0.20;;;19.70;27.00;20.10;94780.00;;;;10274776;28;45973;-62
2021/12/13 04:48:25;;;;;;;0.30;0.28;;;19.70;27.10;20.20;94780.00;;;;10274770;28;45318;-62
2021/12/13 04:53:39;;;;;;;0.20;0.20;;;19.70;27.00;20.10;94785.00;;;;10274028;28;47021;-62
2021/12/13 04:58:44;;;;;;;0.20;0.20;;;19.70;27.00;20.10;94771.00;;;;10273520;28;45541;-62
2021/12/13 05:03:52;;;;;;;0.50;0.15;;;19.70;27.00;20.10;94775.00;;;;10273738;28;46539;-61
2021/12/13 05:08:58;;;;;;;1.08;0.30;;;19.70;27.00;20.20;94783.00;;;;10274511;28;45507;-58
2021/12/13 05:14:00;;;;;;;0.25;0.17;;;19.70;27.10;20.20;94772.00;;;;10273466;28;45248;-60
2021/12/13 05:19:05;;;;;;;0.90;0.20;;;19.80;27.10;20.20;94775.00;;;;10274733;28;45378;-60
2021/12/13 05:24:20;;;;;;;0.35;0.20;;;19.80;27.20;20.30;94771.00;;;;10289367;28;45462;-62
2021/12/13 05:29:30;;;;;;;0.47;0.30;;;19.80;27.10;20.30;94780.00;;;;10274648;28;45312;-62
2021/12/13 05:34:55;;;;;;;0.30;0.28;;;19.80;27.20;20.30;94785.00;;;;10289307;28;45411;-62
2021/12/13 05:40:05;;;;;;;0.30;0.25;;;19.90;27.20;20.30;94766.00;;;;10288471;28;45481;-62
2021/12/13 05:45:10;;;;;;;0.30;0.30;;;19.90;27.20;20.40;94783.00;;;;10272004;28;48616;-59
2021/12/13 05:50:11;;;;;;;0.45;0.45;;;19.90;27.20;20.40;94780.00;;;;10287643;28;45322;-60
2021/12/13 05:55:14;;;;;;;0.40;0.40;;;19.90;27.20;20.40;94775.00;;;;10288450;28;45365;-60
2021/12/13 06:00:29;;;;;;;0.40;0.38;;;19.90;27.20;20.40;94789.00;;;;10271751;28;48290;-60
2021/12/13 06:05:34;;;;;;;0.65;0.40;;;20.00;27.20;20.40;94783.00;;;;10255158;28;48074;-60
2021/12/13 06:10:47;;;;;;;0.50;0.43;;;20.00;27.20;20.40;94801.00;;;;10287533;28;45280;-62
2021/12/13 06:15:48;;;;;;;0.60;0.45;;;20.00;27.10;20.40;94786.00;;;;10272497;28;46113;-62
2021/12/13 06:21:02;;;;;;;0.32;0.30;;;20.00;27.10;20.40;94787.00;;;;10272075;28;45362;-62
2021/12/13 06:26:07;;;;;;;0.20;0.20;;;20.00;27.40;20.40;94803.00;;;;10272046;28;45214;-61
2021/12/13 06:31:15;;;;;;;0.80;0.40;;;20.00;27.10;20.50;94802.00;;;;10272521;28;46637;-60
2021/12/13 06:36:25;;;;;;;0.38;0.38;;;20.00;27.10;20.50;94809.00;;;;10270720;28;45209;-60
2021/12/13 06:41:26;;;;;;;0.93;0.30;;;20.00;27.10;20.50;94810.00;;;;10271927;28;45286;-61
2021/12/13 06:46:26;;;;;;;0.47;0.40;;;20.00;27.10;20.50;94814.00;;;;10271398;28;45197;-59
2021/12/13 06:52:03;;;;;;;0.50;0.30;;;20.00;27.10;20.50;94814.00;;;;10271901;28;45400;-61
2021/12/13 06:57:20;;;;;;;2.30;0.30;;;20.10;27.10;20.50;94823.00;;;;10286329;28;45436;-60
2021/12/13 07:02:27;;;;;;;;;;;20.00;27.10;20.50;94818.00;;;;10277090;28;45187;-61
2021/12/13 07:08:00;;;;;;;0.63;0.60;;;20.10;27.10;20.50;94813.00;;;;10277079;28;46934;-59
2021/12/13 07:13:24;;;;;;;0.50;0.50;;;20.10;27.10;20.50;94836.00;;;;10276838;28;45314;-60
2021/12/13 07:18:40;;;;;;;0.82;0.63;;;20.10;27.10;20.60;94834.00;;;;10276479;28;46325;-61
2021/12/13 07:24:08;;;;;;;1.15;0.70;;;20.10;27.60;20.50;94825.00;;;;10276133;28;45509;-59
2021/12/13 07:29:28;;;;;;;0.70;0.63;;;20.10;27.10;20.50;94829.00;;;;10276268;28;46102;-59
2021/12/13 07:34:29;;;;;;;1.33;0.85;;;20.10;27.10;20.60;94841.00;;;;10276054;28;45260;-61
2021/12/13 07:39:32;;;;;;;1.63;0.63;;;20.10;27.10;20.60;94835.00;;;;10355060;22;45359;-60
2021/12/13 07:44:41;;;;;;;1.23;0.82;;;20.10;27.10;20.60;94850.00;;;;10316854;28;45641;-61
2021/12/13 07:49:48;;;;;;;1.27;0.90;;;20.20;27.30;20.50;94848.00;;;;10273755;28;45219;-63
2021/12/13 07:54:49;;;;;;;3.78;1.30;;;20.10;27.20;20.50;94844.00;;;;10275462;28;46729;-61
2021/12/13 07:59:52;;;;;;;3.67;1.40;;;20.00;27.10;20.50;94849.00;;;;10275633;28;47008;-63
2021/12/13 08:05:07;;;;;;;4.00;1.60;;;20.10;27.00;20.50;94850.00;;;;10275209;28;46984;-61
2021/12/13 08:10:42;;;;;;;3.55;1.90;;;20.10;27.00;20.50;94850.00;;;;10275462;28;47321;-61
2021/12/13 08:15:52;;;;;;;2.78;1.65;;;20.10;27.80;20.50;94852.00;;;;10276584;28;46253;-61
2021/12/13 08:21:23;;;;;;;6.50;2.45;;;20.10;28.20;20.50;94839.00;;;;10275567;28;45456;-60
2021/12/13 08:26:42;;;;;;;3.67;2.17;;;20.10;28.90;20.60;94860.00;;;;10273676;28;46759;-62
2021/12/13 08:31:46;;;;;;;5.47;1.80;;;20.10;29.60;20.60;94836.00;;;;10272831;28;45361;-65
2021/12/13 08:36:48;;;;;;;2.03;1.45;;;20.20;30.10;20.70;94853.00;;;;10274022;28;45649;-61
2021/12/13 08:42:09;;;;;;;3.13;1.77;;;20.20;30.50;20.70;94857.00;;;;10275475;28;45326;-67
2021/12/13 08:47:22;;;;;;;3.17;1.42;;;20.30;30.70;20.80;94864.00;;;;10271889;28;45374;-63
2021/12/13 08:52:34;;;;;;;3.28;1.05;;;20.30;30.90;20.80;94830.00;;;;10282118;28;45366;-60
2021/12/13 08:58:18;;;;;;;2.67;1.27;;;20.30;31.80;20.80;94855.00;;;;10273098;28;46719;-64
2021/12/13 09:03:47;;;;;;;2.25;1.10;;;20.40;31.10;20.80;94856.00;;;;10273512;28;46805;-64
2021/12/13 09:09:05;;;;;;;1.50;0.88;;;20.40;31.40;20.90;94861.00;;;;10274609;28;45440;-65
2021/12/13 09:14:39;;;;;;;1.30;0.80;;;20.40;31.50;20.90;94871.00;;;;10274896;28;45396;-61
2021/12/13 09:19:51;;;;;;;1.85;0.80;;;20.40;31.50;20.90;94871.00;;;;10273823;28;45256;-61
2021/12/13 09:24:55;;;;;;;2.13;0.93;;;20.50;31.50;20.90;94870.00;;;;10271921;28;47950;-62
2021/12/13 09:30:00;;;;;;;1.90;0.90;;;20.50;32.00;20.70;94869.00;;;;10256131;28;47280;-61
2021/12/13 09:35:42;;;;;;;1.42;0.70;;;20.40;31.30;20.90;94853.00;;;;10272425;28;46369;-61
2021/12/13 09:40:57;;;;;;;2.58;0.90;;;20.40;31.50;20.90;94853.00;;;;10272479;28;45521;-61
2021/12/13 09:45:59;;;;;;;1.73;0.80;;;20.50;31.80;21.00;94864.00;;;;10271105;28;47942;-63
2021/12/13 09:51:24;;;;;;;2.30;0.68;;;20.50;31.90;21.00;94851.00;;;;10272514;28;45196;-62
2021/12/13 09:56:30;;;;;;;1.10;0.70;;;20.50;32.00;21.00;94846.00;;;;10255816;28;47961;-62
2021/12/13 10:01:37;;;;;;;1.00;0.68;;;20.50;32.10;21.00;94843.00;;;;10272135;28;46184;-61
2021/12/13 10:06:48;;;;;;;1.25;0.70;;;20.50;32.00;21.00;94841.00;;;;10272235;28;46337;-61
2021/12/13 10:12:01;;;;;;;2.85;0.60;;;20.60;32.00;21.00;94850.00;;;;10273247;28;46524;-61
2021/12/13 10:17:05;;;;;;;1.30;0.60;;;20.50;32.00;20.90;94832.00;;;;10271856;28;45417;-62
2021/12/13 10:22:09;;;;;;;0.75;0.68;;;20.50;31.90;21.00;94830.00;;;;10270807;28;45413;-62
2021/12/13 10:27:13;;;;;;;1.67;0.80;;;20.50;32.00;21.10;94818.00;;;;10271000;28;45286;-65
2021/12/13 10:32:26;;;;;;;2.10;0.60;;;20.60;32.00;21.10;94833.00;;;;10273169;28;45287;-61
2021/12/13 10:37:33;;;;;;;1.55;0.70;;;20.60;32.20;21.10;94829.00;;;;10269384;28;46350;-60
2021/12/13 10:42:42;;;;;;;0.70;0.50;;;20.60;32.10;21.10;94835.00;;;;10270563;28;45752;-60
2021/12/13 10:47:47;;;;;;;3.70;1.00;;;20.60;32.30;21.10;94838.00;;;;10269290;28;45624;-63
2021/12/13 10:52:51;;;;;;;2.08;0.70;;;20.60;32.10;21.10;94820.00;;;;10270588;28;45423;-63
2021/12/13 10:57:52;;;;;;;1.02;0.70;;;20.60;31.90;21.10;94837.00;;;;10269667;28;45331;-63
2021/12/13 11:03:07;;;;;;;0.70;0.63;;;20.60;31.60;21.10;94815.00;;;;10253520;28;46803;-61
2021/12/13 11:08:13;;;;;;;1.95;0.80;;;20.70;31.70;21.10;94823.00;;;;10271798;28;45475;-68
2021/12/13 11:13:16;;;;;;;0.90;0.50;;;20.60;31.80;21.10;94824.00;;;;10290669;28;45491;-62
2021/12/13 11:18:27;;;;;;;1.30;0.80;;;20.70;31.90;21.10;94826.00;;;;10308975;28;45215;-61
2021/12/13 11:23:29;;;;;;;1.52;0.73;;;20.70;31.80;21.10;94799.00;;;;10310622;28;45626;-62
2021/12/13 11:28:32;;;;;;;1.13;0.73;;;20.70;31.70;21.10;94802.00;;;;10311206;28;45322;-64
2021/12/13 11:33:39;;;;;;;3.00;1.00;;;20.60;31.70;21.10;94794.00;;;;10293680;28;47187;-62
2021/12/13 11:39:10;;;;;;;1.75;0.70;;;20.60;31.50;21.00;94802.00;;;;10310401;28;45456;-62
2021/12/13 11:45:04;;;;;;;2.05;1.00;;;20.60;31.50;21.00;94810.00;;;;10303568;28;45490;-63
2021/12/13 11:50:40;;;;;;;2.17;1.00;;;20.60;32.00;21.00;94803.00;;;;10237681;28;45465;-63
2021/12/13 11:56:03;;;;;;;2.10;1.02;;;20.50;31.20;21.00;94794.00;;;;10243900;28;47256;-63
2021/12/13 12:02:01;;;;;;;2.63;1.00;;;20.60;31.10;21.00;94788.00;;;;10245472;28;47088;-62
2021/12/13 12:07:13;;;;;;;2.08;0.90;;;20.50;30.80;21.00;94788.00;;;;10264101;28;45315;-63
2021/12/13 12:12:45;;;;;;;2.13;1.02;;;20.50;30.80;20.90;94780.00;;;;10255885;28;47039;-63
2021/12/13 12:17:46;;;;;;;2.10;1.08;;;20.50;30.70;21.00;94772.00;;;;10289214;28;45718;-62
2021/12/13 12:22:54;;;;;;;1.27;0.82;;;20.50;30.60;20.90;94754.00;;;;10258991;28;46990;-62
2021/12/13 12:28:04;;;;;;;1.73;0.95;;;20.50;30.40;20.90;94739.00;;;;10275935;28;45367;-62
2021/12/13 12:33:07;;;;;;;3.08;1.20;;;20.50;30.30;20.90;94773.00;;;;10275032;28;45208;-62
2021/12/13 12:38:27;;;;;;;2.13;1.25;;;20.50;30.30;21.00;94745.00;;;;10273903;28;46794;-66
2021/12/13 12:43:36;;;;;;;1.80;1.10;;;20.50;30.20;21.00;94760.00;;;;10273966;28;45341;-63
2021/12/13 12:48:46;;;;;;;0.98;0.80;;;20.50;30.10;20.90;94780.00;;;;10273960;28;45200;-62
2021/12/13 12:54:12;;;;;;;3.53;1.08;;;20.50;30.00;21.00;94761.00;;;;10257838;28;47310;-63
2021/12/13 12:59:18;;;;;;;2.50;1.20;;;20.50;30.00;21.00;94771.00;;;;10256548;28;47257;-65
2021/12/13 13:04:38;;;;;;;1.92;1.10;;;20.50;30.00;21.00;94762.00;;;;10275221;28;46248;-63
2021/12/13 13:10:01;;;;;;;1.98;1.00;;;20.50;30.00;20.90;94732.00;;;;10274748;28;46405;-63
2021/12/13 13:15:13;;;;;;;2.00;0.90;;;20.50;29.90;21.00;94744.00;;;;10306131;28;47884;-62
2021/12/13 13:20:24;;;;;;;1.33;0.73;;;20.50;30.00;21.00;94762.00;;;;10270045;28;47507;-63
2021/12/13 13:25:35;;;;;;;1.90;0.90;;;20.50;30.00;21.00;94757.00;;;;10229842;28;48297;-63
2021/12/13 13:30:46;;;;;;;1.83;1.10;;;20.50;30.00;21.00;94740.00;;;;10232745;28;45254;-62
2021/12/13 13:35:47;;;;;;;3.40;1.45;;;20.50;30.00;21.00;94740.00;;;;10237489;28;45514;-62
2021/12/13 13:40:48;;;;;;;3.28;1.23;;;20.50;30.00;21.00;94733.00;;;;10274502;28;46670;-63
2021/12/13 13:45:54;;;;;;;3.00;1.23;;;20.50;30.00;20.90;94742.00;;;;10282779;28;45309;-62
2021/12/13 13:50:58;;;;;;;2.75;1.40;;;20.50;30.00;20.90;94752.00;;;;10272032;28;45341;-61
2021/12/13 13:56:28;;;;;;;2.10;0.90;;;20.50;30.10;21.00;94748.00;;;;10272100;28;45178;-64
2021/12/13 14:01:28;;;;;;;1.95;1.23;;;20.50;30.30;21.10;94751.00;;;;10260217;28;46908;-62
2021/12/13 14:06:38;;;;;;;2.33;1.20;;;20.60;30.50;21.10;94744.00;;;;10311393;28;47102;-62
2021/12/13 14:12:09;;;;;;;3.88;1.10;;;20.60;30.70;21.10;94753.00;;;;10267171;28;46983;-70
2021/12/13 14:17:11;;;;;;;3.20;1.30;;;20.60;30.70;21.10;94761.00;;;;10280372;28;47211;-62
2021/12/13 14:22:13;;;;;;;1.48;1.02;;;20.60;31.00;21.10;94756.00;;;;10279989;28;45258;-63
2021/12/13 14:27:29;;;;;;;2.25;1.30;;;20.60;30.60;21.00;94758.00;;;;10272692;28;45537;-64
2021/12/13 14:32:29;;;;;;;2.40;1.33;;;20.60;30.40;21.10;94759.00;;;;10310683;28;47251;-63
2021/12/13 14:37:34;;;;;;;1.98;1.20;;;20.50;30.20;21.10;94776.00;;;;10293458;28;48593;-63
2021/12/13 14:42:36;;;;;;;2.28;1.50;;;20.60;30.10;21.10;94786.00;;;;10294249;28;47025;-63
2021/12/13 14:47:42;;;;;;;2.53;1.30;;;20.60;30.40;21.10;94772.00;;;;10293276;28;47131;-61
2021/12/13 14:53:09;;;;;;;1.90;1.38;;;20.60;30.30;21.10;94756.00;;;;10293567;28;47027;-62
2021/12/13 14:58:13;;;;;;;;;;;20.60;30.30;21.10;94766.00;;;;10309793;28;45543;-61
2021/12/13 15:03:20;;;;;;;2.00;1.40;;;20.70;30.30;21.10;94755.00;;;;10310576;28;46312;-61
2021/12/13 15:08:24;;;;;;;2.53;1.30;;;20.70;30.20;21.20;94767.00;;;;10300980;28;46444;-62
2021/12/13 15:13:25;;;;;;;2.53;1.50;;;20.60;30.20;21.10;94774.00;;;;10273003;28;45482;-63
2021/12/13 15:18:39;;;;;;;2.60;1.58;;;20.60;30.20;21.20;94787.00;;;;10304757;28;45307;-62
2021/12/13 15:23:41;;;;;;;1.73;1.38;;;20.60;30.10;21.20;94784.00;;;;10258441;28;46442;-62
2021/12/13 15:29:03;;;;;;;2.28;1.40;;;20.70;30.00;21.20;94787.00;;;;10287256;28;46293;-61
2021/12/13 15:34:06;;;;;;;1.48;1.20;;;20.60;30.20;21.20;94790.00;;;;10275463;28;46405;-62
2021/12/13 15:39:12;;;;;;;1.98;1.20;;;20.70;30.00;21.20;94793.00;;;;10313732;28;45378;-61
2021/12/13 15:44:16;;;;;;;1.30;1.07;;;20.70;30.00;21.10;94796.00;;;;10307523;28;46260;-62
2021/12/13 15:54:41;;;;;;;2.63;1.30;;;20.70;29.90;21.20;94792.00;;;;10282951;28;45182;-63
2021/12/13 15:59:48;;;;;;;1.92;1.50;;;20.70;29.70;21.10;94808.00;;;;10288395;28;47359;-61
2021/12/13 16:04:52;;;;;;;;;;;20.60;29.50;21.20;94806.00;;;;10293893;28;46714;-61
2021/12/13 16:10:01;;;;;;;2.08;1.50;;;20.70;29.60;21.10;94798.00;;;;10273533;28;45379;-62
2021/12/13 16:15:07;;;;;;;2.28;1.60;;;20.70;29.50;21.10;94819.00;;;;10290773;28;46773;-63
2021/12/13 16:20:16;;;;;;;3.00;1.50;;;20.70;29.60;21.10;94824.00;;;;10314226;28;45386;-63
2021/12/13 16:25:25;;;;;;;1.50;1.35;;;20.60;29.40;21.10;94813.00;;;;10314778;28;45377;-62
2021/12/13 16:31:01;;;;;;;1.73;1.30;;;20.60;29.20;21.10;94816.00;;;;10314787;28;47107;-64
2021/12/13 16:36:17;;;;;;;1.65;1.42;;;20.60;29.20;21.10;94825.00;;;;10314022;28;45443;-63
2021/12/13 16:41:24;;;;;;;2.28;1.45;;;20.60;29.10;21.10;94824.00;;;;10259935;28;46998;-63
2021/12/13 16:46:26;;;;;;;2.15;1.30;;;20.60;28.90;21.10;94818.00;;;;10298857;28;45409;-62
2021/12/13 16:51:36;;;;;;;1.70;1.40;;;20.70;28.80;21.20;94826.00;;;;10314115;28;45455;-61
2021/12/13 16:56:40;;;;;;;4.13;1.80;;;20.70;28.70;21.20;94824.00;;;;10313478;28;45561;-61
2021/12/13 17:01:51;;;;;;;2.80;2.00;;;20.70;28.70;21.20;94830.00;;;;10313490;28;46489;-61
2021/12/13 17:07:10;;;;;;;2.33;1.88;;;20.70;28.70;21.20;94829.00;;;;10286623;28;45179;-66
2021/12/13 17:12:12;;;;;;;3.88;1.80;;;20.70;28.70;21.30;94840.00;;;;10282760;28;45435;-68
2021/12/13 17:17:17;;;;;;;2.85;1.60;;;20.80;29.50;21.30;94846.00;;;;10274764;28;46941;-63
2021/12/13 17:22:22;;;;;;;2.25;1.58;;;20.80;29.30;21.20;94840.00;;;;10304303;28;46483;-63
2021/12/13 17:27:32;;;;;;;2.80;1.63;;;20.80;29.30;21.30;94841.00;;;;10255531;28;47312;-64
2021/12/13 17:32:41;;;;;;;2.10;1.58;;;20.70;29.30;21.10;94843.00;;;;10277937;28;47188;-63
2021/12/13 17:37:46;;;;;;;2.60;1.70;;;20.70;27.70;21.00;94826.00;;;;10295789;28;48499;-62
2021/12/13 17:42:59;;;;;;;3.10;2.00;;;20.60;28.00;20.90;94842.00;;;;10312639;28;45196;-63
2021/12/13 17:48:15;;;;;;;2.97;1.70;;;20.60;28.00;20.90;94847.00;;;;10281762;28;45428;-63
2021/12/13 17:53:30;;;;;;;4.37;1.30;;;20.60;28.10;21.00;94835.00;;;;10296128;28;48116;-65
2021/12/13 17:58:34;;;;;;;2.17;1.30;;;20.60;28.60;21.10;94859.00;;;;10312698;28;46640;-64
2021/12/13 18:03:42;;;;;;;2.00;1.30;;;20.60;28.80;21.20;94850.00;;;;10311840;28;46598;-65
2021/12/13 18:09:24;;;;;;;2.10;1.42;;;20.60;29.00;21.20;94837.00;;;;10295172;28;47348;-64
2021/12/13 18:14:34;;;;;;;2.88;1.40;;;20.70;29.10;21.20;94830.00;;;;10280063;28;46697;-62
2021/12/13 18:20:00;;;;;;;3.05;1.30;;;20.70;29.10;21.30;94831.00;;;;10272025;28;46406;-62
2021/12/13 18:25:19;;;;;;;1.67;1.20;;;20.80;29.40;21.30;94833.00;;;;10302361;28;47818;-63
2021/12/13 18:30:37;;;;;;;1.60;1.13;;;20.80;29.60;21.30;94843.00;;;;10286412;28;47205;-64
2021/12/13 18:35:42;;;;;;;1.38;1.00;;;20.80;30.20;21.30;94842.00;;;;10268927;28;47128;-62
2021/12/13 18:40:42;;;;;;;1.10;0.88;;;20.80;29.30;21.30;94853.00;;;;10268910;28;45592;-60
2021/12/13 18:45:54;;;;;;;1.40;1.00;;;20.80;29.60;21.30;94861.00;;;;10289508;28;47201;-61
2021/12/13 18:51:09;;;;;;;2.50;1.20;;;20.80;29.30;21.40;94860.00;;;;10310864;28;46419;-60
2021/12/13 18:56:17;;;;;;;1.98;1.05;;;20.90;29.20;21.40;94865.00;;;;10313754;28;45218;-62
2021/12/13 19:01:27;;;;;;;1.50;0.98;;;20.90;29.10;21.40;94854.00;;;;10308215;28;45669;-64
2021/12/13 19:06:41;;;;;;;1.75;1.02;;;20.90;29.60;21.40;94847.00;;;;10277438;28;45419;-64
2021/12/13 19:12:10;;;;;;;1.88;1.00;;;20.90;29.40;21.40;94860.00;;;;10283340;28;45483;-63
2021/12/13 19:17:15;;;;;;;1.90;0.90;;;20.90;29.30;21.40;94832.00;;;;10301336;28;47531;-62
2021/12/13 19:22:49;;;;;;;2.00;1.10;;;20.90;29.20;21.40;94858.00;;;;10300885;28;47047;-64
2021/12/13 19:27:59;;;;;;;1.98;1.00;;;20.90;29.20;21.40;94843.00;;;;10314293;28;45312;-64
2021/12/13 19:33:16;;;;;;;1.88;1.20;;;20.90;29.20;21.40;94853.00;;;;10317028;28;45252;-63
2021/12/13 19:38:38;;;;;;;2.42;1.13;;;20.90;29.20;21.40;94873.00;;;;10317128;28;46932;-62
2021/12/13 19:43:43;;;;;;;1.00;0.90;;;20.90;29.20;21.40;94853.00;;;;10317468;28;45595;-63
2021/12/13 19:48:47;;;;;;;2.17;0.90;;;20.90;29.20;21.40;94843.00;;;;10316684;28;47098;-62
2021/12/13 19:54:09;;;;;;;1.60;0.98;;;20.90;29.80;21.40;94839.00;;;;10316809;28;47553;-62
2021/12/13 19:59:23;;;;;;;3.85;1.10;;;20.90;29.20;21.40;94856.00;;;;10317584;28;46408;-62
2021/12/13 20:04:52;;;;;;;1.40;0.98;;;20.90;29.20;21.40;94842.00;;;;10316940;28;46558;-62
2021/12/13 20:10:18;;;;;;;1.67;1.00;;;20.90;29.20;21.40;94855.00;;;;10316177;28;46498;-63
2021/12/13 20:15:59;;;;;;;2.20;1.20;;;20.90;29.20;21.40;94846.00;;;;10281122;28;47440;-62
2021/12/13 20:21:07;;;;;;;0.77;0.75;;;20.90;29.20;21.40;94844.00;;;;10227488;28;46426;-63
2021/12/13 20:26:18;;;;;;;1.85;1.00;;;20.90;29.20;21.40;94850.00;;;;10275360;28;46531;-63
2021/12/13 20:31:37;;;;;;;1.15;0.90;;;20.90;29.20;21.40;94833.00;;;;10275762;28;45415;-62
2021/12/13 20:37:16;;;;;;;1.05;0.80;;;20.90;29.20;21.40;94830.00;;;;10276303;28;45326;-63
2021/12/13 20:42:30;;;;;;;0.90;0.70;;;20.90;29.20;21.40;94847.00;;;;10255705;28;47128;-62
2021/12/13 20:47:40;;;;;;;0.85;0.75;;;20.90;29.20;21.40;94841.00;;;;10311014;28;46259;-62
2021/12/13 20:52:42;;;;;;;1.08;0.88;;;20.90;29.30;21.40;94847.00;;;;10298749;28;47035;-63
2021/12/13 20:57:53;;;;;;;0.90;0.73;;;20.90;29.30;21.50;94845.00;;;;10314656;28;46433;-63
2021/12/13 21:03:05;;;;;;;1.08;0.70;;;20.90;29.30;21.50;94836.00;;;;10314861;28;46336;-62
2021/12/13 21:08:13;;;;;;;0.88;0.70;;;20.90;29.30;21.50;94838.00;;;;10293173;28;47582;-64
2021/12/13 21:13:22;;;;;;;1.77;1.00;;;20.90;29.30;21.50;94822.00;;;;10294603;28;46194;-64
2021/12/13 21:18:35;;;;;;;1.42;0.90;;;20.90;29.30;21.40;94815.00;;;;10272621;28;46061;-63
2021/12/13 21:23:55;;;;;;;0.80;0.73;;;20.90;29.30;21.40;94818.00;;;;10274196;28;45271;-63
2021/12/13 21:29:06;;;;;;;1.60;0.80;;;20.90;29.40;21.40;94831.00;;;;10273682;28;45334;-64
2021/12/13 21:34:50;;;;;;;1.17;0.70;;;20.90;29.30;21.30;94829.00;;;;10272987;28;45340;-63
2021/12/13 21:39:51;;;;;;;0.98;0.88;;;20.80;29.30;21.30;94828.00;;;;10272730;28;48008;-63
2021/12/13 21:45:34;;;;;;;1.20;0.70;;;20.80;29.40;21.30;94829.00;;;;10285425;28;47898;-63
2021/12/13 21:50:51;;;;;;;1.20;0.80;;;20.70;29.40;21.20;94838.00;;;;10313197;28;45253;-63
2021/12/13 21:56:01;;;;;;;0.95;0.75;;;20.70;29.40;21.20;94816.00;;;;10312603;28;48253;-64
2021/12/13 22:01:32;;;;;;;0.82;0.80;;;20.70;29.40;21.20;94812.00;;;;10314159;28;45289;-64
2021/12/13 22:06:39;;;;;;;1.65;0.90;;;20.70;29.30;21.20;94838.00;;;;10314104;28;45396;-64
2021/12/13 22:11:49;;;;;;;1.23;0.73;;;20.60;29.30;21.10;94830.00;;;;10306783;28;46525;-64
2021/12/13 22:17:09;;;;;;;0.80;0.80;;;20.60;29.30;21.10;94815.00;;;;10271629;28;46543;-63
2021/12/13 22:22:14;;;;;;;1.08;0.77;;;20.60;29.30;21.10;94837.00;;;;10272331;28;45585;-63
2021/12/13 22:27:23;;;;;;;0.90;0.80;;;20.60;29.30;21.10;94829.00;;;;10272037;28;45565;-62
2021/12/13 22:32:25;;;;;;;1.20;0.75;;;20.50;29.20;21.00;94828.00;;;;10270684;28;45215;-63
2021/12/13 22:38:00;;;;;;;0.90;0.80;;;20.50;29.20;21.00;94806.00;;;;10270895;28;45246;-63
2021/12/13 22:43:12;;;;;;;1.85;0.90;;;20.50;29.20;21.00;94824.00;;;;10250632;28;46903;-64
2021/12/13 22:48:18;;;;;;;0.95;0.60;;;20.50;29.20;21.00;94818.00;;;;10254517;28;47382;-63
2021/12/13 22:53:19;;;;;;;0.70;0.60;;;20.50;29.20;21.00;94805.00;;;;10271603;28;46378;-63
2021/12/13 22:58:34;;;;;;;1.10;0.77;;;20.50;29.20;21.00;94815.00;;;;10270990;28;46455;-62
2021/12/13 23:03:41;;;;;;;0.82;0.77;;;20.50;29.20;21.00;94810.00;;;;10270766;28;45629;-61
2021/12/13 23:08:49;;;;;;;1.13;0.80;;;20.50;29.10;21.00;94811.00;;;;10270525;28;46817;-62